Friday, October 24, 2014
20:35 UTC
  |  Log In   |  Register Free
Airport Search:

Southwest Georgia Regional Airport
(KABY)

FAA data valid effective September 18, 2014 - November 13, 2014 (unless otherwise noted).

 
 
 
 
 
 
 
 
 
 
 
 
 
 

Current Aviation Weather for Southwest Georgia Regional Airport (KABY)

The most recent METAR observation for KABY was updated at: 2007
METAR Summary (Translated METAR)
KABY
241953Z 25004KT 10SM CLR 24/07 A3000 RMK AO2 SLP157 T02390067
KMGR
241955Z AUTO 00000KT 10SM CLR 23/07 A2998 RMK AO2
(33.7 nm SE from KABY)
KACJ
241935Z AUTO 21006KT 10SM CLR 22/07 A3000 RMK AO2
(34.5 nm NE from KABY)
TAF Summary (Translated TAF)
KABY
241720Z 2418/2518 03005KT P6SM FEW200
  Airport Weather Conditions for KABY

 Current Weather at ABY
75° F
Fair
West winds at 4.6 mph
ABY NOAA Radar

Pressure: 30.00 in
Humidity: 33%
Wind: West at 4.6 MPH (4 KT)
Dew Point: 44.1°F
Visibility: 10.00 mi


Airport Weather Forecast for KABY

Translated METAR and TAF for KABY
Translated METAR for KABY (2030 UTC 24 October 2014)
found at http://aviationweather.gov/adds/metars/
 
METAR text: KABY 241953Z 25004KT 10SM CLR 24/07 A3000 RMK AO2 SLP157 T02390067
Conditions at: KABY (ALBANY , GA, US) observed 1953 UTC 24 October 2014
Temperature: 23.9°C (75°F)
Dewpoint: 6.7°C (44°F) [RH = 33%]
Pressure (altimeter): 30.00 inches Hg (1016.0 mb)
[Sea-level pressure: 1015.7 mb]
Winds: from the WSW (250 degrees) at 5 MPH (4 knots; 2.1 m/s)
Visibility: 10 or more miles (16+ km)
Ceiling: at least 12,000 feet AGL
Clouds: sky clear below 12,000 feet AGL
Weather: no significant weather observed at this time
Translated TAF for KABY
Forecast for: KABY (ALBANY , GA, US)
TAF Text: KABY 241720Z 2418/2518 03005KT P6SM FEW200
Forecast period: 1800 UTC 24 October 2014 to 1800 UTC 25 October 2014
Forecast type: FROM: standard forecast or significant change
Winds: from the NNE (30 degrees) at 6 MPH (5 knots; 2.6 m/s)
Visibility: 6 or more miles (10+ km)
Clouds: few clouds at 20000 feet AGL
Weather: no significant weather forecast for this period

Find All Airport Services Find A Hotel Find A Rental Car Find A Golf Course Find A Restaurant $100 Hamburger



FBO's on the Field
FBO Company Facility Photos Services Transportation Aviation Fuel Prices: Prices include tax
Catering Weather Repair Courtesy Rental Type 100LL JetA JetA+ MOGAS 8087
 
Eagles of America, Inc. - ABY

Currently rated 5 by 1 person
FS:Epic
Last Updated: Oct-16
Login to update fuel prices
SS:
Contact Eagles of America, Inc. - ABYMore FBO Information
 
Add another FBO Facility Photos Catering Weather Repair Courtesy Rental Type 100LL JetA JetA+ MOGAS 8087
Services Transportation Aviation Fuel Prices: Prices include tax


model-print
model-print
model-print
model-print